Chelsea, Massachusetts
Current Conditions -  °F | °C
As of 2:54 PM on Tuesday 25 Nov 2014 (Local Time) from KBOS Reporting Station
Overcast Overcast  
Wind Chill: 59°   Ceiling: 20000
Heat Index: 59°   Visibility: 10mi
Dew Point: 26°   Wind: 12mph
Humidity: 28%   Direction: 230°SW
Pressure: 29.88"   Gusts: NA
Location:  42.39°N, 71.03°W
Report Text: KBOS 251954Z 23010KT 10SM FEW070 SCT130 OVC200 15/M03 A2988 RMK AO2 SLP116 T01501033
Loading
Personal Weather Stations






























Interactive Weather Map New forecast layout! Learn more

10-Day Weather Forecast

Advertisements
Track Severe Weather on mobile